PWSweather.com
Personal Weather Stations
Station Observations
KMAWOBUR2
West Side, Woburn, MA 01801

West SideWoburn, MA 01801

Lat: 42.458, Lon: -71.1955

Elevation: 160

Station Type: DAVIS/Vantage Pro2

http://pauland.net

High Low Average
Temperature 44.1°F6.7°C 33.4°F0.8°C 38.6°F3.7°C
Dew Point 39.8°F4.3°C 4.4°F-15.3°C 20.7°F-6.3°C
Winds 9.0 mph 14.5 kmh Calm Calm 3.0 mph SSW4.8 kmh SSW
Wind Gusts 25.0 mph40.2 kmh -- 9.0 mph14.5 kmh
Humidity 90% 21% 53%
Pressure 30.20 in1022.7 mb 29.62 in1003.0 mb -
Precipitation 0.19 in4.8 mm - -
Hour Temp Dew Point Humidity Winds Wind Gusts Pressure Precip Precip Rate Daily Precip Total
12:00 AM 42.5°F5.8°C 39.8°F4.3°C 90% 2.0 mph NW3.2 kmh NW 10.0 mph16.1 kmh 29.62 in1003.0 mb 0.01 in0.3 mm 0.00 in0.0 mm 0.18 in4.6 mm
12:05 AM 42.3°F5.7°C 39.6°F4.2°C 90% 1.0 mph W1.6 kmh W 5.0 mph8.0 kmh 29.62 in1003.0 mb 0.01 in0.3 mm 0.00 in0.0 mm 0.18 in4.6 mm
12:10 AM 42.2°F5.7°C 39.5°F4.2°C 90% 1.0 mph W1.6 kmh W 4.0 mph6.4 kmh 29.62 in1003.0 mb 0.02 in0.5 mm 0.12 in3.0 mm 0.19 in4.8 mm
12:15 AM 42.1°F5.6°C 39.4°F4.1°C 90% 1.0 mph W1.6 kmh W 3.0 mph4.8 kmh 29.63 in1003.4 mb 0.02 in0.5 mm 0.00 in0.0 mm 0.19 in4.8 mm
12:20 AM 41.9°F5.5°C 39.2°F4.0°C 90% 1.0 mph NW1.6 kmh NW 4.0 mph6.4 kmh 29.63 in1003.4 mb 0.02 in0.5 mm 0.00 in0.0 mm 0.19 in4.8 mm
12:25 AM 41.6°F5.3°C 38.9°F3.8°C 90% 1.0 mph WNW1.6 kmh WNW 4.0 mph6.4 kmh 29.63 in1003.4 mb 0.02 in0.5 mm 0.00 in0.0 mm 0.19 in4.8 mm
12:30 AM 41.3°F5.2°C 38.6°F3.7°C 90% 2.0 mph WSW3.2 kmh WSW 6.0 mph9.7 kmh 29.63 in1003.4 mb 0.02 in0.5 mm 0.00 in0.0 mm 0.19 in4.8 mm
12:35 AM 41.2°F5.1°C 38.5°F3.6°C 90% 1.0 mph NW1.6 kmh NW 6.0 mph9.7 kmh 29.63 in1003.4 mb 0.02 in0.5 mm 0.00 in0.0 mm 0.19 in4.8 mm
12:40 AM 40.9°F4.9°C 38.2°F3.4°C 90% 1.0 mph WNW1.6 kmh WNW 6.0 mph9.7 kmh 29.63 in1003.4 mb 0.01 in0.3 mm 0.00 in0.0 mm 0.19 in4.8 mm
12:45 AM 40.8°F4.9°C 38.1°F3.4°C 90% 1.0 mph NNW1.6 kmh NNW 6.0 mph9.7 kmh 29.62 in1003.0 mb 0.01 in0.3 mm 0.00 in0.0 mm 0.19 in4.8 mm
12:50 AM 40.6°F4.8°C 37.9°F3.3°C 90% 2.0 mph NNW3.2 kmh NNW 6.0 mph9.7 kmh 29.62 in1003.0 mb 0.01 in0.3 mm 0.00 in0.0 mm 0.19 in4.8 mm
12:55 AM 40.5°F4.7°C 37.5°F3.1°C 89% 1.0 mph WNW1.6 kmh WNW 4.0 mph6.4 kmh 29.62 in1003.0 mb 0.01 in0.3 mm 0.00 in0.0 mm 0.19 in4.8 mm
01:00 AM 40.2°F4.6°C 37.2°F2.9°C 89% 1.0 mph NW1.6 kmh NW 5.0 mph8.0 kmh 29.63 in1003.4 mb 0.01 in0.3 mm 0.00 in0.0 mm 0.19 in4.8 mm
01:05 AM 40.1°F4.5°C 37.1°F2.8°C 89% 2.0 mph W3.2 kmh W 11.0 mph17.7 kmh 29.63 in1003.4 mb 0.01 in0.3 mm 0.00 in0.0 mm 0.19 in4.8 mm
01:10 AM 39.9°F4.4°C 36.9°F2.7°C 89% Calm Calm 2.0 mph3.2 kmh 29.63 in1003.4 mb 0.00 in0.0 mm 0.00 in0.0 mm 0.19 in4.8 mm
01:15 AM 39.8°F4.3°C 36.8°F2.7°C 89% 1.0 mph ENE1.6 kmh ENE 6.0 mph9.7 kmh 29.64 in1003.7 mb 0.00 in0.0 mm 0.00 in0.0 mm 0.19 in4.8 mm
01:20 AM 39.8°F4.3°C 36.8°F2.7°C 89% 1.0 mph NNE1.6 kmh NNE 7.0 mph11.3 kmh 29.64 in1003.7 mb 0.00 in0.0 mm 0.00 in0.0 mm 0.19 in4.8 mm
01:25 AM 39.6°F4.2°C 36.3°F2.4°C 88% Calm Calm 3.0 mph4.8 kmh 29.64 in1003.7 mb 0.00 in0.0 mm 0.00 in0.0 mm 0.19 in4.8 mm
01:30 AM 39.5°F4.2°C 36.2°F2.3°C 88% 1.0 mph SW1.6 kmh SW 3.0 mph4.8 kmh 29.65 in1004.1 mb 0.00 in0.0 mm 0.00 in0.0 mm 0.19 in4.8 mm
01:35 AM 39.3°F4.1°C 36.0°F2.2°C 88% 2.0 mph W3.2 kmh W 6.0 mph9.7 kmh 29.65 in1004.1 mb 0.00 in0.0 mm 0.00 in0.0 mm 0.19 in4.8 mm
01:40 AM 39.2°F4.0°C 35.9°F2.2°C 88% 1.0 mph W1.6 kmh W 8.0 mph12.9 kmh 29.65 in1004.1 mb 0.00 in0.0 mm 0.00 in0.0 mm 0.19 in4.8 mm
01:45 AM 39.1°F3.9°C 35.6°F2.0°C 87% 1.0 mph W1.6 kmh W 8.0 mph12.9 kmh 29.65 in1004.1 mb 0.00 in0.0 mm 0.00 in0.0 mm 0.19 in4.8 mm
01:50 AM 38.9°F3.8°C 35.4°F1.9°C 87% 2.0 mph WNW3.2 kmh WNW 5.0 mph8.0 kmh 29.65 in1004.1 mb 0.00 in0.0 mm 0.00 in0.0 mm 0.19 in4.8 mm
01:55 AM 38.9°F3.8°C 35.4°F1.9°C 87% 2.0 mph WSW3.2 kmh WSW 9.0 mph14.5 kmh 29.65 in1004.1 mb 0.00 in0.0 mm 0.00 in0.0 mm 0.19 in4.8 mm
02:00 AM 38.8°F3.8°C 35.0°F1.7°C 86% 3.0 mph WNW4.8 kmh WNW 8.0 mph12.9 kmh 29.65 in1004.1 mb 0.00 in0.0 mm 0.00 in0.0 mm 0.19 in4.8 mm
02:05 AM 38.8°F3.8°C 34.7°F1.5°C 85% 2.0 mph NW3.2 kmh NW 9.0 mph14.5 kmh 29.65 in1004.1 mb 0.00 in0.0 mm 0.00 in0.0 mm 0.19 in4.8 mm
02:10 AM 38.6°F3.7°C 34.5°F1.4°C 85% 1.0 mph W1.6 kmh W 7.0 mph11.3 kmh 29.65 in1004.1 mb 0.00 in0.0 mm 0.00 in0.0 mm 0.19 in4.8 mm
02:15 AM 38.5°F3.6°C 34.4°F1.3°C 85% 1.0 mph NW1.6 kmh NW 6.0 mph9.7 kmh 29.66 in1004.4 mb 0.00 in0.0 mm 0.00 in0.0 mm 0.19 in4.8 mm
02:20 AM 38.5°F3.6°C 34.1°F1.2°C 84% 1.0 mph SSW1.6 kmh SSW 4.0 mph6.4 kmh 29.66 in1004.4 mb 0.00 in0.0 mm 0.00 in0.0 mm 0.19 in4.8 mm
02:25 AM 38.3°F3.5°C 33.9°F1.1°C 84% 1.0 mph WNW1.6 kmh WNW 7.0 mph11.3 kmh 29.66 in1004.4 mb 0.00 in0.0 mm 0.00 in0.0 mm 0.19 in4.8 mm
02:30 AM 38.3°F3.5°C 33.6°F0.9°C 83% 1.0 mph W1.6 kmh W 5.0 mph8.0 kmh 29.66 in1004.4 mb 0.00 in0.0 mm 0.00 in0.0 mm 0.19 in4.8 mm
02:35 AM 38.3°F3.5°C 33.6°F0.9°C 83% 2.0 mph W3.2 kmh W 7.0 mph11.3 kmh 29.66 in1004.4 mb 0.00 in0.0 mm 0.00 in0.0 mm 0.19 in4.8 mm
02:40 AM 38.2°F3.4°C 33.5°F0.8°C 83% 2.0 mph NNW3.2 kmh NNW 8.0 mph12.9 kmh 29.66 in1004.4 mb 0.00 in0.0 mm 0.00 in0.0 mm 0.19 in4.8 mm
02:45 AM 38.2°F3.4°C 33.2°F0.7°C 82% 1.0 mph NW1.6 kmh NW 4.0 mph6.4 kmh 29.67 in1004.7 mb 0.00 in0.0 mm 0.00 in0.0 mm 0.19 in4.8 mm
02:50 AM 38.2°F3.4°C 33.2°F0.7°C 82% 1.0 mph NW1.6 kmh NW 4.0 mph6.4 kmh 29.67 in1004.7 mb 0.00 in0.0 mm 0.00 in0.0 mm 0.19 in4.8 mm
02:55 AM 38.2°F3.4°C 33.2°F0.7°C 82% 1.0 mph W1.6 kmh W 6.0 mph9.7 kmh 29.67 in1004.7 mb 0.00 in0.0 mm 0.00 in0.0 mm 0.19 in4.8 mm
03:00 AM 38.0°F3.3°C 33.0°F0.6°C 82% 1.0 mph W1.6 kmh W 5.0 mph8.0 kmh 29.67 in1004.7 mb 0.00 in0.0 mm 0.00 in0.0 mm 0.19 in4.8 mm
03:05 AM 37.9°F3.3°C 32.9°F0.5°C 82% 1.0 mph NW1.6 kmh NW 5.0 mph8.0 kmh 29.67 in1004.7 mb 0.00 in0.0 mm 0.00 in0.0 mm 0.19 in4.8 mm
03:10 AM 37.9°F3.3°C 32.9°F0.5°C 82% 1.0 mph NW1.6 kmh NW 3.0 mph4.8 kmh 29.67 in1004.7 mb 0.00 in0.0 mm 0.00 in0.0 mm 0.19 in4.8 mm
03:15 AM 37.8°F3.2°C 32.8°F0.4°C 82% 1.0 mph NW1.6 kmh NW 5.0 mph8.0 kmh 29.68 in1005.1 mb 0.00 in0.0 mm 0.00 in0.0 mm 0.19 in4.8 mm
03:20 AM 37.6°F3.1°C 32.6°F0.3°C 82% Calm Calm 4.0 mph6.4 kmh 29.68 in1005.1 mb 0.00 in0.0 mm 0.00 in0.0 mm 0.19 in4.8 mm
03:25 AM 37.3°F2.9°C 32.3°F0.2°C 82% Calm Calm 2.0 mph3.2 kmh 29.68 in1005.1 mb 0.00 in0.0 mm 0.00 in0.0 mm 0.19 in4.8 mm
03:30 AM 37.2°F2.9°C 32.5°F0.3°C 83% Calm Calm 3.0 mph4.8 kmh 29.68 in1005.1 mb 0.00 in0.0 mm 0.00 in0.0 mm 0.19 in4.8 mm
03:35 AM 37.0°F2.8°C 32.3°F0.2°C 83% 1.0 mph WNW1.6 kmh WNW 5.0 mph8.0 kmh 29.68 in1005.1 mb 0.00 in0.0 mm 0.00 in0.0 mm 0.19 in4.8 mm
03:40 AM 36.9°F2.7°C 32.2°F0.1°C 83% Calm Calm 2.0 mph3.2 kmh 29.68 in1005.1 mb 0.00 in0.0 mm 0.00 in0.0 mm 0.19 in4.8 mm
03:45 AM 36.9°F2.7°C 32.2°F0.1°C 83% 1.0 mph W1.6 kmh W 7.0 mph11.3 kmh 29.68 in1005.1 mb 0.00 in0.0 mm 0.00 in0.0 mm 0.19 in4.8 mm
03:50 AM 36.9°F2.7°C 32.2°F0.1°C 83% 2.0 mph NW3.2 kmh NW 6.0 mph9.7 kmh 29.68 in1005.1 mb 0.00 in0.0 mm 0.00 in0.0 mm 0.19 in4.8 mm
03:55 AM 36.9°F2.7°C 32.2°F0.1°C 83% 2.0 mph NW3.2 kmh NW 10.0 mph16.1 kmh 29.68 in1005.1 mb 0.00 in0.0 mm 0.00 in0.0 mm 0.19 in4.8 mm
04:00 AM 37.0°F2.8°C 31.7°F-0.2°C 81% 1.0 mph WNW1.6 kmh WNW 5.0 mph8.0 kmh 29.69 in1005.4 mb 0.00 in0.0 mm 0.00 in0.0 mm 0.19 in4.8 mm
04:05 AM 37.0°F2.8°C 31.4°F-0.3°C 80% 1.0 mph WNW1.6 kmh WNW 6.0 mph9.7 kmh 29.69 in1005.4 mb 0.00 in0.0 mm 0.00 in0.0 mm 0.02 in0.5 mm
04:10 AM 37.0°F2.8°C 30.8°F-0.7°C 78% 2.0 mph NW3.2 kmh NW 6.0 mph9.7 kmh 29.69 in1005.4 mb 0.00 in0.0 mm 0.00 in0.0 mm 0.02 in0.5 mm
04:15 AM 37.2°F2.9°C 30.3°F-0.9°C 76% 2.0 mph 3.2 kmh 6.0 mph9.7 kmh 29.70 in1005.8 mb 0.00 in0.0 mm 0.00 in0.0 mm 0.02 in0.5 mm
04:20 AM 37.2°F2.9°C 29.7°F-1.3°C 74% 2.0 mph NNW3.2 kmh NNW 10.0 mph16.1 kmh 29.70 in1005.8 mb 0.00 in0.0 mm 0.00 in0.0 mm 0.02 in0.5 mm
04:25 AM 37.3°F2.9°C 29.1°F-1.6°C 72% 3.0 mph 4.8 kmh 10.0 mph16.1 kmh 29.70 in1005.8 mb 0.00 in0.0 mm 0.00 in0.0 mm 0.02 in0.5 mm
04:30 AM 37.3°F2.9°C 28.4°F-2.0°C 70% 3.0 mph NNW4.8 kmh NNW 11.0 mph17.7 kmh 29.71 in1006.1 mb 0.00 in0.0 mm 0.00 in0.0 mm 0.02 in0.5 mm
04:35 AM 37.5°F3.1°C 28.3°F-2.1°C 69% 1.0 mph 1.6 kmh 5.0 mph8.0 kmh 29.71 in1006.1 mb 0.00 in0.0 mm 0.00 in0.0 mm 0.02 in0.5 mm
04:40 AM 37.6°F3.1°C 28.0°F-2.2°C 68% 2.0 mph NW3.2 kmh NW 8.0 mph12.9 kmh 29.71 in1006.1 mb 0.00 in0.0 mm 0.00 in0.0 mm 0.02 in0.5 mm
04:45 AM 37.6°F3.1°C 27.7°F-2.4°C 67% 2.0 mph NNW3.2 kmh NNW 9.0 mph14.5 kmh 29.71 in1006.1 mb 0.00 in0.0 mm 0.00 in0.0 mm 0.02 in0.5 mm
04:50 AM 37.5°F3.1°C 27.2°F-2.7°C 66% 2.0 mph NNE3.2 kmh NNE 9.0 mph14.5 kmh 29.71 in1006.1 mb 0.00 in0.0 mm 0.00 in0.0 mm 0.02 in0.5 mm
04:55 AM 37.5°F3.1°C 26.8°F-2.9°C 65% 4.0 mph NW6.4 kmh NW 9.0 mph14.5 kmh 29.71 in1006.1 mb 0.00 in0.0 mm 0.00 in0.0 mm 0.02 in0.5 mm
05:00 AM 37.5°F3.1°C 26.8°F-2.9°C 65% 2.0 mph NNW3.2 kmh NNW 6.0 mph9.7 kmh 29.71 in1006.1 mb 0.00 in0.0 mm 0.00 in0.0 mm 0.02 in0.5 mm
05:05 AM 37.5°F3.1°C 26.8°F-2.9°C 65% 2.0 mph WSW3.2 kmh WSW 10.0 mph16.1 kmh 29.71 in1006.1 mb 0.00 in0.0 mm 0.00 in0.0 mm 0.02 in0.5 mm
05:10 AM 37.3°F2.9°C 26.6°F-3.0°C 65% 2.0 mph NNW3.2 kmh NNW 6.0 mph9.7 kmh 29.71 in1006.1 mb 0.00 in0.0 mm 0.00 in0.0 mm 0.02 in0.5 mm
05:15 AM 37.2°F2.9°C 26.2°F-3.2°C 64% 3.0 mph NNW4.8 kmh NNW 11.0 mph17.7 kmh 29.71 in1006.1 mb 0.00 in0.0 mm 0.00 in0.0 mm 0.02 in0.5 mm
05:20 AM 37.3°F2.9°C 26.3°F-3.2°C 64% 3.0 mph NNW4.8 kmh NNW 7.0 mph11.3 kmh 29.71 in1006.1 mb 0.00 in0.0 mm 0.00 in0.0 mm 0.02 in0.5 mm
05:25 AM 37.2°F2.9°C 26.2°F-3.2°C 64% 2.0 mph NW3.2 kmh NW 8.0 mph12.9 kmh 29.71 in1006.1 mb 0.00 in0.0 mm 0.00 in0.0 mm 0.02 in0.5 mm
05:30 AM 37.0°F2.8°C 26.0°F-3.3°C 64% 3.0 mph NNW4.8 kmh NNW 8.0 mph12.9 kmh 29.72 in1006.4 mb 0.00 in0.0 mm 0.00 in0.0 mm 0.02 in0.5 mm
05:35 AM 37.0°F2.8°C 26.0°F-3.3°C 64% 2.0 mph 3.2 kmh 7.0 mph11.3 kmh 29.72 in1006.4 mb 0.00 in0.0 mm 0.00 in0.0 mm 0.02 in0.5 mm
05:40 AM 36.9°F2.7°C 26.3°F-3.2°C 65% 1.0 mph 1.6 kmh 4.0 mph6.4 kmh 29.72 in1006.4 mb 0.00 in0.0 mm 0.00 in0.0 mm 0.02 in0.5 mm
05:45 AM 36.8°F2.7°C 26.5°F-3.1°C 66% 1.0 mph 1.6 kmh 6.0 mph9.7 kmh 29.72 in1006.4 mb 0.00 in0.0 mm 0.00 in0.0 mm 0.02 in0.5 mm
05:50 AM 36.5°F2.5°C 26.6°F-3.0°C 67% 1.0 mph W1.6 kmh W 6.0 mph9.7 kmh 29.72 in1006.4 mb 0.00 in0.0 mm 0.00 in0.0 mm 0.02 in0.5 mm
05:55 AM 36.2°F2.3°C 26.3°F-3.2°C 67% Calm Calm 3.0 mph4.8 kmh 29.72 in1006.4 mb 0.00 in0.0 mm 0.00 in0.0 mm 0.02 in0.5 mm
06:00 AM 35.9°F2.2°C 26.4°F-3.1°C 68% Calm Calm -- 29.73 in1006.8 mb 0.00 in0.0 mm 0.00 in0.0 mm 0.02 in0.5 mm
06:05 AM 35.6°F2.0°C 26.4°F-3.1°C 69% Calm Calm 3.0 mph4.8 kmh 29.73 in1006.8 mb 0.00 in0.0 mm 0.00 in0.0 mm 0.02 in0.5 mm
06:10 AM 35.5°F1.9°C 26.7°F-2.9°C 70% Calm Calm -- 29.73 in1006.8 mb 0.00 in0.0 mm 0.00 in0.0 mm 0.02 in0.5 mm
06:15 AM 35.2°F1.8°C 26.8°F-2.9°C 71% Calm Calm -- 29.73 in1006.8 mb 0.00 in0.0 mm 0.00 in0.0 mm 0.02 in0.5 mm
06:20 AM 34.9°F1.6°C 26.8°F-2.9°C 72% Calm Calm -- 29.73 in1006.8 mb 0.00 in0.0 mm 0.00 in0.0 mm 0.02 in0.5 mm
06:25 AM 34.6°F1.4°C 26.9°F-2.8°C 73% Calm Calm 1.0 mph1.6 kmh 29.73 in1006.8 mb 0.00 in0.0 mm 0.00 in0.0 mm 0.02 in0.5 mm
06:30 AM 34.4°F1.3°C 27.3°F-2.6°C 75% Calm Calm -- 29.73 in1006.8 mb 0.00 in0.0 mm 0.00 in0.0 mm 0.02 in0.5 mm
06:35 AM 34.3°F1.3°C 27.5°F-2.5°C 76% Calm Calm 3.0 mph4.8 kmh 29.73 in1006.8 mb 0.00 in0.0 mm 0.00 in0.0 mm 0.02 in0.5 mm
06:40 AM 34.4°F1.3°C 27.6°F-2.4°C 76% Calm Calm 1.0 mph1.6 kmh 29.73 in1006.8 mb 0.00 in0.0 mm 0.00 in0.0 mm 0.02 in0.5 mm
06:45 AM 34.4°F1.3°C 28.0°F-2.2°C 77% Calm Calm 2.0 mph3.2 kmh 29.73 in1006.8 mb 0.00 in0.0 mm 0.00 in0.0 mm 0.02 in0.5 mm
06:50 AM 34.9°F1.6°C 28.1°F-2.2°C 76% 3.0 mph NW4.8 kmh NW 7.0 mph11.3 kmh 29.73 in1006.8 mb 0.00 in0.0 mm 0.00 in0.0 mm 0.02 in0.5 mm
06:55 AM 35.2°F1.8°C 28.1°F-2.2°C 75% 1.0 mph W1.6 kmh W 9.0 mph14.5 kmh 29.73 in1006.8 mb 0.00 in0.0 mm 0.00 in0.0 mm 0.02 in0.5 mm
07:00 AM 35.5°F1.9°C 28.0°F-2.2°C 74% 1.0 mph W1.6 kmh W 5.0 mph8.0 kmh 29.73 in1006.8 mb 0.00 in0.0 mm 0.00 in0.0 mm 0.02 in0.5 mm
07:05 AM 35.6°F2.0°C 27.8°F-2.3°C 73% 1.0 mph WNW1.6 kmh WNW 5.0 mph8.0 kmh 29.73 in1006.8 mb 0.00 in0.0 mm 0.00 in0.0 mm 0.02 in0.5 mm
07:10 AM 35.8°F2.1°C 27.7°F-2.4°C 72% 1.0 mph NNW1.6 kmh NNW 3.0 mph4.8 kmh 29.73 in1006.8 mb 0.00 in0.0 mm 0.00 in0.0 mm 0.02 in0.5 mm
07:15 AM 35.8°F2.1°C 27.7°F-2.4°C 72% 1.0 mph NW1.6 kmh NW 5.0 mph8.0 kmh 29.73 in1006.8 mb 0.00 in0.0 mm 0.00 in0.0 mm 0.02 in0.5 mm
07:20 AM 35.8°F2.1°C 27.3°F-2.6°C 71% 1.0 mph NW1.6 kmh NW 3.0 mph4.8 kmh 29.73 in1006.8 mb 0.00 in0.0 mm 0.00 in0.0 mm 0.02 in0.5 mm
07:25 AM 35.6°F2.0°C 27.1°F-2.7°C 71% 3.0 mph NW4.8 kmh NW 10.0 mph16.1 kmh 29.73 in1006.8 mb 0.00 in0.0 mm 0.00 in0.0 mm 0.02 in0.5 mm
07:30 AM 35.6°F2.0°C 27.1°F-2.7°C 71% 2.0 mph WNW3.2 kmh WNW 13.0 mph20.9 kmh 29.73 in1006.8 mb 0.00 in0.0 mm 0.00 in0.0 mm 0.02 in0.5 mm
07:35 AM 35.5°F1.9°C 27.0°F-2.8°C 71% Calm Calm -- 29.73 in1006.8 mb 0.00 in0.0 mm 0.00 in0.0 mm 0.02 in0.5 mm
07:40 AM 35.3°F1.8°C 26.9°F-2.8°C 71% 2.0 mph WSW3.2 kmh WSW 6.0 mph9.7 kmh 29.73 in1006.8 mb 0.00 in0.0 mm 0.00 in0.0 mm 0.02 in0.5 mm
07:45 AM 35.3°F1.8°C 26.9°F-2.8°C 71% 1.0 mph W1.6 kmh W 3.0 mph4.8 kmh 29.74 in1007.1 mb 0.00 in0.0 mm 0.00 in0.0 mm 0.02 in0.5 mm
07:50 AM 35.2°F1.8°C 26.8°F-2.9°C 71% 1.0 mph W1.6 kmh W 6.0 mph9.7 kmh 29.74 in1007.1 mb 0.00 in0.0 mm 0.00 in0.0 mm 0.02 in0.5 mm
07:55 AM 35.2°F1.8°C 26.8°F-2.9°C 71% 3.0 mph NNW4.8 kmh NNW 8.0 mph12.9 kmh 29.74 in1007.1 mb 0.00 in0.0 mm 0.00 in0.0 mm 0.02 in0.5 mm
08:00 AM 35.2°F1.8°C 26.8°F-2.9°C 71% 3.0 mph NW4.8 kmh NW 7.0 mph11.3 kmh 29.75 in1007.5 mb 0.00 in0.0 mm 0.00 in0.0 mm 0.02 in0.5 mm
08:05 AM 35.2°F1.8°C 26.8°F-2.9°C 71% 1.0 mph WNW1.6 kmh WNW 4.0 mph6.4 kmh 29.75 in1007.5 mb 0.00 in0.0 mm 0.00 in0.0 mm 0.02 in0.5 mm
08:10 AM 35.2°F1.8°C 26.8°F-2.9°C 71% 2.0 mph NNW3.2 kmh NNW 6.0 mph9.7 kmh 29.75 in1007.5 mb 0.00 in0.0 mm 0.00 in0.0 mm 0.02 in0.5 mm
08:15 AM 34.9°F1.6°C 26.5°F-3.1°C 71% 1.0 mph NNW1.6 kmh NNW 4.0 mph6.4 kmh 29.75 in1007.5 mb 0.00 in0.0 mm 0.00 in0.0 mm 0.02 in0.5 mm
08:20 AM 34.7°F1.5°C 26.3°F-3.2°C 71% 1.0 mph WSW1.6 kmh WSW 5.0 mph8.0 kmh 29.75 in1007.5 mb 0.00 in0.0 mm 0.00 in0.0 mm 0.02 in0.5 mm
08:25 AM 34.7°F1.5°C 26.6°F-3.0°C 72% 1.0 mph W1.6 kmh W 3.0 mph4.8 kmh 29.75 in1007.5 mb 0.00 in0.0 mm 0.00 in0.0 mm 0.02 in0.5 mm
08:30 AM 34.6°F1.4°C 26.2°F-3.2°C 71% 3.0 mph NW4.8 kmh NW 8.0 mph12.9 kmh 29.76 in1007.8 mb 0.00 in0.0 mm 0.00 in0.0 mm 0.02 in0.5 mm
08:35 AM 34.6°F1.4°C 26.5°F-3.1°C 72% 1.0 mph W1.6 kmh W 5.0 mph8.0 kmh 29.76 in1007.8 mb 0.00 in0.0 mm 0.00 in0.0 mm 0.02 in0.5 mm
08:40 AM 34.6°F1.4°C 26.5°F-3.1°C 72% 1.0 mph NW1.6 kmh NW 5.0 mph8.0 kmh 29.76 in1007.8 mb 0.00 in0.0 mm 0.00 in0.0 mm 0.02 in0.5 mm
08:45 AM 34.6°F1.4°C 26.5°F-3.1°C 72% 3.0 mph NW4.8 kmh NW 6.0 mph9.7 kmh 29.78 in1008.5 mb 0.00 in0.0 mm 0.00 in0.0 mm 0.02 in0.5 mm
08:50 AM 34.6°F1.4°C 26.5°F-3.1°C 72% 1.0 mph NNW1.6 kmh NNW 3.0 mph4.8 kmh 29.78 in1008.5 mb 0.00 in0.0 mm 0.00 in0.0 mm 0.02 in0.5 mm
08:55 AM 34.6°F1.4°C 26.5°F-3.1°C 72% 1.0 mph NNE1.6 kmh NNE 5.0 mph8.0 kmh 29.78 in1008.5 mb 0.00 in0.0 mm 0.00 in0.0 mm 0.02 in0.5 mm
09:00 AM 34.4°F1.3°C 26.7°F-2.9°C 73% 1.0 mph NNE1.6 kmh NNE 3.0 mph4.8 kmh 29.78 in1008.5 mb 0.00 in0.0 mm 0.00 in0.0 mm 0.02 in0.5 mm
09:05 AM 34.4°F1.3°C 26.7°F-2.9°C 73% 1.0 mph NNW1.6 kmh NNW 5.0 mph8.0 kmh 29.78 in1008.5 mb 0.00 in0.0 mm 0.00 in0.0 mm 0.02 in0.5 mm
09:10 AM 34.3°F1.3°C 26.6°F-3.0°C 73% 2.0 mph NNW3.2 kmh NNW 7.0 mph11.3 kmh 29.78 in1008.5 mb 0.00 in0.0 mm 0.00 in0.0 mm 0.02 in0.5 mm
09:15 AM 34.1°F1.2°C 26.4°F-3.1°C 73% 1.0 mph NW1.6 kmh NW 4.0 mph6.4 kmh 29.79 in1008.8 mb 0.00 in0.0 mm 0.00 in0.0 mm 0.02 in0.5 mm
09:20 AM 34.1°F1.2°C 26.4°F-3.1°C 73% 1.0 mph NW1.6 kmh NW 3.0 mph4.8 kmh 29.79 in1008.8 mb 0.00 in0.0 mm 0.00 in0.0 mm 0.02 in0.5 mm
09:25 AM 34.0°F1.1°C 26.3°F-3.2°C 73% 1.0 mph W1.6 kmh W 3.0 mph4.8 kmh 29.79 in1008.8 mb 0.00 in0.0 mm 0.00 in0.0 mm 0.02 in0.5 mm
09:30 AM 33.8°F1.0°C 26.1°F-3.3°C 73% 1.0 mph WNW1.6 kmh WNW 5.0 mph8.0 kmh 29.81 in1009.5 mb 0.00 in0.0 mm 0.00 in0.0 mm 0.02 in0.5 mm
09:35 AM 33.8°F1.0°C 25.7°F-3.5°C 72% 1.0 mph NNW1.6 kmh NNW 6.0 mph9.7 kmh 29.81 in1009.5 mb 0.00 in0.0 mm 0.00 in0.0 mm 0.02 in0.5 mm
09:40 AM 33.8°F1.0°C 25.4°F-3.7°C 71% 2.0 mph NNW3.2 kmh NNW 7.0 mph11.3 kmh 29.81 in1009.5 mb 0.00 in0.0 mm 0.00 in0.0 mm 0.02 in0.5 mm
09:45 AM 33.8°F1.0°C 25.4°F-3.7°C 71% 1.0 mph NNW1.6 kmh NNW 4.0 mph6.4 kmh 29.81 in1009.5 mb 0.00 in0.0 mm 0.00 in0.0 mm 0.02 in0.5 mm
09:50 AM 33.8°F1.0°C 24.4°F-4.2°C 68% 2.0 mph 3.2 kmh 8.0 mph12.9 kmh 29.81 in1009.5 mb 0.00 in0.0 mm 0.00 in0.0 mm 0.02 in0.5 mm
09:55 AM 34.0°F1.1°C 23.9°F-4.5°C 66% 3.0 mph NW4.8 kmh NW 11.0 mph17.7 kmh 29.81 in1009.5 mb 0.00 in0.0 mm 0.00 in0.0 mm 0.02 in0.5 mm
10:00 AM 34.0°F1.1°C 23.5°F-4.7°C 65% 3.0 mph NNW4.8 kmh NNW 8.0 mph12.9 kmh 29.82 in1009.8 mb 0.00 in0.0 mm 0.00 in0.0 mm 0.02 in0.5 mm
10:05 AM 34.1°F1.2°C 23.6°F-4.7°C 65% 3.0 mph NW4.8 kmh NW 7.0 mph11.3 kmh 29.82 in1009.8 mb 0.00 in0.0 mm 0.00 in0.0 mm 0.02 in0.5 mm
10:10 AM 34.0°F1.1°C 23.1°F-4.9°C 64% 3.0 mph 4.8 kmh 8.0 mph12.9 kmh 29.82 in1009.8 mb 0.00 in0.0 mm 0.00 in0.0 mm 0.02 in0.5 mm
10:15 AM 34.0°F1.1°C 23.1°F-4.9°C 64% 2.0 mph 3.2 kmh 9.0 mph14.5 kmh 29.83 in1010.2 mb 0.00 in0.0 mm 0.00 in0.0 mm 0.02 in0.5 mm
10:20 AM 33.8°F1.0°C 22.9°F-5.1°C 64% 2.0 mph 3.2 kmh 8.0 mph12.9 kmh 29.83 in1010.2 mb 0.00 in0.0 mm 0.00 in0.0 mm 0.02 in0.5 mm
10:25 AM 33.8°F1.0°C 22.9°F-5.1°C 64% 3.0 mph WNW4.8 kmh WNW 6.0 mph9.7 kmh 29.83 in1010.2 mb 0.00 in0.0 mm 0.00 in0.0 mm 0.02 in0.5 mm
10:30 AM 33.8°F1.0°C 22.9°F-5.1°C 64% 3.0 mph NW4.8 kmh NW 6.0 mph9.7 kmh 29.84 in1010.5 mb 0.00 in0.0 mm 0.00 in0.0 mm 0.02 in0.5 mm
10:35 AM 33.7°F0.9°C 23.2°F-4.9°C 65% 2.0 mph NW3.2 kmh NW 7.0 mph11.3 kmh 29.84 in1010.5 mb 0.00 in0.0 mm 0.00 in0.0 mm 0.02 in0.5 mm
10:40 AM 33.7°F0.9°C 23.2°F-4.9°C 65% 2.0 mph W3.2 kmh W 9.0 mph14.5 kmh 29.84 in1010.5 mb 0.00 in0.0 mm 0.00 in0.0 mm 0.02 in0.5 mm
10:45 AM 33.5°F0.8°C 23.4°F-4.8°C 66% 3.0 mph NNW4.8 kmh NNW 7.0 mph11.3 kmh 29.86 in1011.2 mb 0.00 in0.0 mm 0.00 in0.0 mm 0.02 in0.5 mm
10:50 AM 33.4°F0.8°C 22.6°F-5.2°C 64% 2.0 mph 3.2 kmh 11.0 mph17.7 kmh 29.86 in1011.2 mb 0.00 in0.0 mm 0.00 in0.0 mm 0.02 in0.5 mm
10:55 AM 33.4°F0.8°C 22.2°F-5.4°C 63% 4.0 mph 6.4 kmh 8.0 mph12.9 kmh 29.86 in1011.2 mb 0.00 in0.0 mm 0.00 in0.0 mm 0.02 in0.5 mm
11:00 AM 33.5°F0.8°C 21.5°F-5.8°C 61% 5.0 mph NNW8.0 kmh NNW 11.0 mph17.7 kmh 29.86 in1011.2 mb 0.00 in0.0 mm 0.00 in0.0 mm 0.02 in0.5 mm
11:05 AM 33.8°F1.0°C 21.0°F-6.1°C 59% 7.0 mph NNW11.3 kmh NNW 19.0 mph30.6 kmh 29.86 in1011.2 mb 0.00 in0.0 mm 0.00 in0.0 mm 0.02 in0.5 mm
11:10 AM 34.0°F1.1°C 20.8°F-6.2°C 58% 5.0 mph NNW8.0 kmh NNW 11.0 mph17.7 kmh 29.86 in1011.2 mb 0.00 in0.0 mm 0.00 in0.0 mm 0.02 in0.5 mm
11:15 AM 34.1°F1.2°C 20.9°F-6.2°C 58% 5.0 mph NNW8.0 kmh NNW 10.0 mph16.1 kmh 29.88 in1011.9 mb 0.00 in0.0 mm 0.00 in0.0 mm 0.02 in0.5 mm
11:20 AM 34.1°F1.2°C 20.9°F-6.2°C 58% 6.0 mph 9.7 kmh 11.0 mph17.7 kmh 29.88 in1011.9 mb 0.00 in0.0 mm 0.00 in0.0 mm 0.02 in0.5 mm
11:25 AM 34.3°F1.3°C 21.1°F-6.1°C 58% 5.0 mph 8.0 kmh 11.0 mph17.7 kmh 29.88 in1011.9 mb 0.00 in0.0 mm 0.00 in0.0 mm 0.02 in0.5 mm
11:30 AM 34.4°F1.3°C 21.2°F-6.0°C 58% 3.0 mph 4.8 kmh 10.0 mph16.1 kmh 29.89 in1012.2 mb 0.00 in0.0 mm 0.00 in0.0 mm 0.02 in0.5 mm
11:35 AM 34.6°F1.4°C 21.0°F-6.1°C 57% 5.0 mph NNW8.0 kmh NNW 10.0 mph16.1 kmh 29.89 in1012.2 mb 0.00 in0.0 mm 0.00 in0.0 mm 0.02 in0.5 mm
11:40 AM 34.9°F1.6°C 21.6°F-5.8°C 58% 4.0 mph NNE6.4 kmh NNE 11.0 mph17.7 kmh 29.89 in1012.2 mb 0.00 in0.0 mm 0.00 in0.0 mm 0.02 in0.5 mm
11:45 AM 35.0°F1.7°C 21.3°F-5.9°C 57% 4.0 mph WNW6.4 kmh WNW 9.0 mph14.5 kmh 29.89 in1012.2 mb 0.00 in0.0 mm 0.00 in0.0 mm 0.02 in0.5 mm
11:50 AM 35.2°F1.8°C 21.9°F-5.6°C 58% 4.0 mph 6.4 kmh 9.0 mph14.5 kmh 29.89 in1012.2 mb 0.00 in0.0 mm 0.00 in0.0 mm 0.02 in0.5 mm
11:55 AM 35.5°F1.9°C 22.2°F-5.4°C 58% 3.0 mph 4.8 kmh 8.0 mph12.9 kmh 29.89 in1012.2 mb 0.00 in0.0 mm 0.00 in0.0 mm 0.02 in0.5 mm
12:00 PM 35.6°F2.0°C 21.9°F-5.6°C 57% 4.0 mph NNW6.4 kmh NNW 8.0 mph12.9 kmh 29.90 in1012.5 mb 0.00 in0.0 mm 0.00 in0.0 mm 0.02 in0.5 mm
12:05 PM 35.9°F2.2°C 23.0°F-5.0°C 59% 3.0 mph 4.8 kmh 6.0 mph9.7 kmh 29.90 in1012.5 mb 0.00 in0.0 mm 0.00 in0.0 mm 0.02 in0.5 mm
12:10 PM 36.0°F2.2°C 23.1°F-4.9°C 59% 4.0 mph NW6.4 kmh NW 12.0 mph19.3 kmh 29.90 in1012.5 mb 0.00 in0.0 mm 0.00 in0.0 mm 0.02 in0.5 mm
12:15 PM 36.2°F2.3°C 23.3°F-4.8°C 59% 4.0 mph NNW6.4 kmh NNW 13.0 mph20.9 kmh 29.90 in1012.5 mb 0.00 in0.0 mm 0.00 in0.0 mm 0.02 in0.5 mm
12:20 PM 36.3°F2.4°C 23.4°F-4.8°C 59% 5.0 mph NNW8.0 kmh NNW 11.0 mph17.7 kmh 29.90 in1012.5 mb 0.00 in0.0 mm 0.00 in0.0 mm 0.02 in0.5 mm
12:25 PM 36.3°F2.4°C 23.0°F-5.0°C 58% 5.0 mph 8.0 kmh 14.0 mph22.5 kmh 29.90 in1012.5 mb 0.00 in0.0 mm 0.00 in0.0 mm 0.02 in0.5 mm
12:30 PM 36.5°F2.5°C 23.1°F-4.9°C 58% 4.0 mph 6.4 kmh 9.0 mph14.5 kmh 29.90 in1012.5 mb 0.00 in0.0 mm 0.00 in0.0 mm 0.02 in0.5 mm
12:35 PM 36.6°F2.6°C 23.2°F-4.9°C 58% 4.0 mph 6.4 kmh 11.0 mph17.7 kmh 29.90 in1012.5 mb 0.00 in0.0 mm 0.00 in0.0 mm 0.02 in0.5 mm
12:40 PM 36.9°F2.7°C 23.5°F-4.7°C 58% 5.0 mph NNW8.0 kmh NNW 15.0 mph24.1 kmh 29.90 in1012.5 mb 0.00 in0.0 mm 0.00 in0.0 mm 0.02 in0.5 mm
12:45 PM 36.9°F2.7°C 22.7°F-5.2°C 56% 4.0 mph NNW6.4 kmh NNW 10.0 mph16.1 kmh 29.91 in1012.9 mb 0.00 in0.0 mm 0.00 in0.0 mm 0.02 in0.5 mm
12:50 PM 37.0°F2.8°C 22.8°F-5.1°C 56% 5.0 mph NW8.0 kmh NW 12.0 mph19.3 kmh 29.91 in1012.9 mb 0.00 in0.0 mm 0.00 in0.0 mm 0.02 in0.5 mm
12:55 PM 37.3°F2.9°C 23.9°F-4.5°C 58% 4.0 mph NNW6.4 kmh NNW 10.0 mph16.1 kmh 29.91 in1012.9 mb 0.00 in0.0 mm 0.00 in0.0 mm 0.02 in0.5 mm
01:00 PM 37.6°F3.1°C 22.5°F-5.3°C 54% 4.0 mph 6.4 kmh 9.0 mph14.5 kmh 29.92 in1013.2 mb 0.00 in0.0 mm 0.00 in0.0 mm 0.02 in0.5 mm
01:05 PM 37.3°F2.9°C 22.2°F-5.4°C 54% 5.0 mph NNW8.0 kmh NNW 9.0 mph14.5 kmh 29.92 in1013.2 mb 0.00 in0.0 mm 0.00 in0.0 mm 0.02 in0.5 mm
01:10 PM 37.3°F2.9°C 22.2°F-5.4°C 54% 5.0 mph NNW8.0 kmh NNW 12.0 mph19.3 kmh 29.92 in1013.2 mb 0.00 in0.0 mm 0.00 in0.0 mm 0.02 in0.5 mm
01:15 PM 37.2°F2.9°C 21.7°F-5.7°C 53% 4.0 mph NNW6.4 kmh NNW 10.0 mph16.1 kmh 29.92 in1013.2 mb 0.00 in0.0 mm 0.00 in0.0 mm 0.02 in0.5 mm
01:20 PM 37.6°F3.1°C 21.6°F-5.8°C 52% 4.0 mph WNW6.4 kmh WNW 14.0 mph22.5 kmh 29.92 in1013.2 mb 0.00 in0.0 mm 0.00 in0.0 mm 0.02 in0.5 mm
01:25 PM 37.8°F3.2°C 20.8°F-6.2°C 50% 5.0 mph 8.0 kmh 16.0 mph25.7 kmh 29.92 in1013.2 mb 0.00 in0.0 mm 0.00 in0.0 mm 0.02 in0.5 mm
01:30 PM 38.0°F3.3°C 21.5°F-5.8°C 51% 4.0 mph NW6.4 kmh NW 13.0 mph20.9 kmh 29.93 in1013.5 mb 0.00 in0.0 mm 0.00 in0.0 mm 0.02 in0.5 mm
01:35 PM 38.3°F3.5°C 21.3°F-5.9°C 50% 4.0 mph 6.4 kmh 9.0 mph14.5 kmh 29.93 in1013.5 mb 0.00 in0.0 mm 0.00 in0.0 mm 0.02 in0.5 mm
01:40 PM 38.8°F3.8°C 21.3°F-5.9°C 49% 4.0 mph WNW6.4 kmh WNW 10.0 mph16.1 kmh 29.93 in1013.5 mb 0.00 in0.0 mm 0.00 in0.0 mm 0.02 in0.5 mm
01:45 PM 38.9°F3.8°C 20.9°F-6.2°C 48% 4.0 mph WNW6.4 kmh WNW 11.0 mph17.7 kmh 29.94 in1013.9 mb 0.00 in0.0 mm 0.00 in0.0 mm 0.02 in0.5 mm
01:50 PM 39.1°F3.9°C 20.6°F-6.3°C 47% 4.0 mph 6.4 kmh 9.0 mph14.5 kmh 29.94 in1013.9 mb 0.00 in0.0 mm 0.00 in0.0 mm 0.02 in0.5 mm
01:55 PM 38.9°F3.8°C 19.4°F-7.0°C 45% 7.0 mph 11.3 kmh 16.0 mph25.7 kmh 29.94 in1013.9 mb 0.00 in0.0 mm 0.00 in0.0 mm 0.02 in0.5 mm
02:00 PM 39.3°F4.1°C 19.8°F-6.8°C 45% 5.0 mph 8.0 kmh 20.0 mph32.2 kmh 29.95 in1014.2 mb 0.00 in0.0 mm 0.00 in0.0 mm 0.02 in0.5 mm
02:05 PM 39.8°F4.3°C 20.2°F-6.6°C 45% 5.0 mph NNW8.0 kmh NNW 13.0 mph20.9 kmh 29.95 in1014.2 mb 0.00 in0.0 mm 0.00 in0.0 mm 0.02 in0.5 mm
02:10 PM 39.8°F4.3°C 19.7°F-6.8°C 44% 6.0 mph 9.7 kmh 10.0 mph16.1 kmh 29.95 in1014.2 mb 0.00 in0.0 mm 0.00 in0.0 mm 0.02 in0.5 mm
02:15 PM 39.9°F4.4°C 19.2°F-7.1°C 43% 6.0 mph NNW9.7 kmh NNW 17.0 mph27.4 kmh 29.95 in1014.2 mb 0.00 in0.0 mm 0.00 in0.0 mm 0.02 in0.5 mm
02:20 PM 39.9°F4.4°C 18.1°F-7.7°C 41% 5.0 mph NNW8.0 kmh NNW 11.0 mph17.7 kmh 29.95 in1014.2 mb 0.00 in0.0 mm 0.00 in0.0 mm 0.02 in0.5 mm
02:25 PM 39.9°F4.4°C 17.6°F-8.0°C 40% 6.0 mph NNW9.7 kmh NNW 14.0 mph22.5 kmh 29.95 in1014.2 mb 0.00 in0.0 mm 0.00 in0.0 mm 0.02 in0.5 mm
02:30 PM 40.2°F4.6°C 18.4°F-7.6°C 41% 7.0 mph NNW11.3 kmh NNW 17.0 mph27.4 kmh 29.95 in1014.2 mb 0.00 in0.0 mm 0.00 in0.0 mm 0.02 in0.5 mm
02:35 PM 40.6°F4.8°C 18.2°F-7.7°C 40% 4.0 mph 6.4 kmh 11.0 mph17.7 kmh 29.95 in1014.2 mb 0.00 in0.0 mm 0.00 in0.0 mm 0.02 in0.5 mm
02:40 PM 40.6°F4.8°C 16.4°F-8.7°C 37% 7.0 mph 11.3 kmh 16.0 mph25.7 kmh 29.95 in1014.2 mb 0.00 in0.0 mm 0.00 in0.0 mm 0.02 in0.5 mm
02:45 PM 40.8°F4.9°C 16.6°F-8.6°C 37% 6.0 mph 9.7 kmh 18.0 mph29.0 kmh 29.96 in1014.6 mb 0.00 in0.0 mm 0.00 in0.0 mm 0.02 in0.5 mm
02:50 PM 40.6°F4.8°C 17.0°F-8.3°C 38% 7.0 mph NNW11.3 kmh NNW 14.0 mph22.5 kmh 29.96 in1014.6 mb 0.00 in0.0 mm 0.00 in0.0 mm 0.02 in0.5 mm
02:55 PM 40.8°F4.9°C 16.6°F-8.6°C 37% 7.0 mph NW11.3 kmh NW 15.0 mph24.1 kmh 29.96 in1014.6 mb 0.00 in0.0 mm 0.00 in0.0 mm 0.02 in0.5 mm
03:00 PM 40.9°F4.9°C 16.7°F-8.5°C 37% 7.0 mph NNW11.3 kmh NNW 15.0 mph24.1 kmh 29.95 in1014.2 mb 0.00 in0.0 mm 0.00 in0.0 mm 0.02 in0.5 mm
03:05 PM 41.6°F5.3°C 18.5°F-7.5°C 39% 4.0 mph 6.4 kmh 9.0 mph14.5 kmh 29.95 in1014.2 mb 0.00 in0.0 mm 0.00 in0.0 mm 0.02 in0.5 mm
03:10 PM 41.9°F5.5°C 14.9°F-9.5°C 33% 7.0 mph NNE11.3 kmh NNE 21.0 mph33.8 kmh 29.95 in1014.2 mb 0.00 in0.0 mm 0.00 in0.0 mm 0.02 in0.5 mm
03:15 PM 41.8°F5.4°C 16.8°F-8.4°C 36% 6.0 mph 9.7 kmh 13.0 mph20.9 kmh 29.95 in1014.2 mb 0.00 in0.0 mm 0.00 in0.0 mm 0.02 in0.5 mm
03:20 PM 41.8°F5.4°C 15.5°F-9.2°C 34% 5.0 mph 8.0 kmh 18.0 mph29.0 kmh 29.95 in1014.2 mb 0.00 in0.0 mm 0.00 in0.0 mm 0.02 in0.5 mm
03:25 PM 42.2°F5.7°C 16.5°F-8.6°C 35% 4.0 mph NW6.4 kmh NW 12.0 mph19.3 kmh 29.95 in1014.2 mb 0.00 in0.0 mm 0.00 in0.0 mm 0.02 in0.5 mm
03:30 PM 42.5°F5.8°C 16.8°F-8.4°C 35% 6.0 mph 9.7 kmh 12.0 mph19.3 kmh 29.96 in1014.6 mb 0.00 in0.0 mm 0.00 in0.0 mm 0.02 in0.5 mm
03:35 PM 42.3°F5.7°C 16.6°F-8.6°C 35% 7.0 mph 11.3 kmh 18.0 mph29.0 kmh 29.96 in1014.6 mb 0.00 in0.0 mm 0.00 in0.0 mm 0.02 in0.5 mm
03:40 PM 41.9°F5.5°C 12.8°F-10.7°C 30% 8.0 mph 12.9 kmh 15.0 mph24.1 kmh 29.96 in1014.6 mb 0.00 in0.0 mm 0.00 in0.0 mm 0.02 in0.5 mm
03:45 PM 41.9°F5.5°C 14.2°F-9.9°C 32% 6.0 mph 9.7 kmh 16.0 mph25.7 kmh 29.96 in1014.6 mb 0.00 in0.0 mm 0.00 in0.0 mm 0.02 in0.5 mm
03:50 PM 42.1°F5.6°C 14.4°F-9.8°C 32% 6.0 mph NNW9.7 kmh NNW 16.0 mph25.7 kmh 29.96 in1014.6 mb 0.00 in0.0 mm 0.00 in0.0 mm 0.02 in0.5 mm
03:55 PM 42.3°F5.7°C 17.3°F-8.2°C 36% 6.0 mph 9.7 kmh 12.0 mph19.3 kmh 29.96 in1014.6 mb 0.00 in0.0 mm 0.00 in0.0 mm 0.02 in0.5 mm
04:00 PM 42.2°F5.7°C 14.5°F-9.7°C 32% 9.0 mph 14.5 kmh 15.0 mph24.1 kmh 29.96 in1014.6 mb 0.00 in0.0 mm 0.00 in0.0 mm 0.02 in0.5 mm
04:05 PM 42.5°F5.8°C 14.0°F-10.0°C 31% 6.0 mph 9.7 kmh 14.0 mph22.5 kmh 29.96 in1014.6 mb 0.00 in0.0 mm 0.00 in0.0 mm 0.02 in0.5 mm
04:10 PM 43.1°F6.2°C 15.3°F-9.3°C 32% 6.0 mph 9.7 kmh 11.0 mph17.7 kmh 29.96 in1014.6 mb 0.00 in0.0 mm 0.00 in0.0 mm 0.02 in0.5 mm
04:15 PM 43.2°F6.2°C 13.9°F-10.1°C 30% 6.0 mph NNW9.7 kmh NNW 17.0 mph27.4 kmh 29.97 in1014.9 mb 0.00 in0.0 mm 0.00 in0.0 mm 0.02 in0.5 mm
04:20 PM 42.9°F6.1°C 13.6°F-10.2°C 30% 8.0 mph 12.9 kmh 15.0 mph24.1 kmh 29.97 in1014.9 mb 0.00 in0.0 mm 0.00 in0.0 mm 0.02 in0.5 mm
04:25 PM 43.3°F6.3°C 17.5°F-8.1°C 35% 4.0 mph NNW6.4 kmh NNW 11.0 mph17.7 kmh 29.97 in1014.9 mb 0.00 in0.0 mm 0.00 in0.0 mm 0.02 in0.5 mm
04:30 PM 43.3°F6.3°C 14.7°F-9.6°C 31% 7.0 mph 11.3 kmh 16.0 mph25.7 kmh 29.97 in1014.9 mb 0.00 in0.0 mm 0.00 in0.0 mm 0.02 in0.5 mm
04:35 PM 43.6°F6.4°C 15.7°F-9.1°C 32% 6.0 mph NW9.7 kmh NW 16.0 mph25.7 kmh 29.97 in1014.9 mb 0.00 in0.0 mm 0.00 in0.0 mm 0.02 in0.5 mm
04:40 PM 43.2°F6.2°C 14.6°F-9.7°C 31% 7.0 mph 11.3 kmh 16.0 mph25.7 kmh 29.97 in1014.9 mb 0.00 in0.0 mm 0.00 in0.0 mm 0.02 in0.5 mm
04:45 PM 43.6°F6.4°C 15.7°F-9.1°C 32% 4.0 mph NW6.4 kmh NW 8.0 mph12.9 kmh 29.97 in1014.9 mb 0.00 in0.0 mm 0.00 in0.0 mm 0.02 in0.5 mm
04:50 PM 44.1°F6.7°C 16.1°F-8.8°C 32% 4.0 mph 6.4 kmh 14.0 mph22.5 kmh 29.97 in1014.9 mb 0.00 in0.0 mm 0.00 in0.0 mm 0.02 in0.5 mm
04:55 PM 44.1°F6.7°C 13.9°F-10.1°C 29% 6.0 mph NW9.7 kmh NW 14.0 mph22.5 kmh 29.97 in1014.9 mb 0.00 in0.0 mm 0.00 in0.0 mm 0.02 in0.5 mm
05:00 PM 43.9°F6.6°C 17.4°F-8.1°C 34% 4.0 mph NNW6.4 kmh NNW 10.0 mph16.1 kmh 29.98 in1015.2 mb 0.00 in0.0 mm 0.00 in0.0 mm 0.02 in0.5 mm
05:05 PM 44.1°F6.7°C 16.1°F-8.8°C 32% 5.0 mph NW8.0 kmh NW 14.0 mph22.5 kmh 29.98 in1015.2 mb 0.00 in0.0 mm 0.00 in0.0 mm 0.02 in0.5 mm
05:10 PM 44.1°F6.7°C 15.4°F-9.2°C 31% 5.0 mph NNW8.0 kmh NNW 12.0 mph19.3 kmh 29.98 in1015.2 mb 0.00 in0.0 mm 0.00 in0.0 mm 0.02 in0.5 mm
05:15 PM 44.1°F6.7°C 13.9°F-10.1°C 29% 7.0 mph NNW11.3 kmh NNW 13.0 mph20.9 kmh 29.98 in1015.2 mb 0.00 in0.0 mm 0.00 in0.0 mm 0.02 in0.5 mm
05:20 PM 43.8°F6.6°C 12.8°F-10.7°C 28% 5.0 mph 8.0 kmh 14.0 mph22.5 kmh 29.98 in1015.2 mb 0.00 in0.0 mm 0.00 in0.0 mm 0.02 in0.5 mm
05:25 PM 43.5°F6.4°C 11.8°F-11.2°C 27% 7.0 mph 11.3 kmh 14.0 mph22.5 kmh 29.98 in1015.2 mb 0.00 in0.0 mm 0.00 in0.0 mm 0.02 in0.5 mm
05:30 PM 43.2°F6.2°C 11.5°F-11.4°C 27% 5.0 mph NNW8.0 kmh NNW 12.0 mph19.3 kmh 30.00 in1015.9 mb 0.00 in0.0 mm 0.00 in0.0 mm 0.02 in0.5 mm
05:35 PM 43.2°F6.2°C 12.3°F-10.9°C 28% 6.0 mph WNW9.7 kmh WNW 17.0 mph27.4 kmh 30.00 in1015.9 mb 0.00 in0.0 mm 0.00 in0.0 mm 0.02 in0.5 mm
05:40 PM 43.5°F6.4°C 12.6°F-10.8°C 28% 6.0 mph W9.7 kmh W 15.0 mph24.1 kmh 30.00 in1015.9 mb 0.00 in0.0 mm 0.00 in0.0 mm 0.02 in0.5 mm
05:45 PM 43.5°F6.4°C 10.9°F-11.7°C 26% 6.0 mph 9.7 kmh 15.0 mph24.1 kmh 30.00 in1015.9 mb 0.00 in0.0 mm 0.00 in0.0 mm 0.02 in0.5 mm
05:50 PM 43.6°F6.4°C 12.7°F-10.7°C 28% 7.0 mph NNW11.3 kmh NNW 25.0 mph40.2 kmh 30.00 in1015.9 mb 0.00 in0.0 mm 0.00 in0.0 mm 0.02 in0.5 mm
05:55 PM 43.8°F6.6°C 12.0°F-11.1°C 27% 7.0 mph 11.3 kmh 24.0 mph38.6 kmh 30.00 in1015.9 mb 0.00 in0.0 mm 0.00 in0.0 mm 0.02 in0.5 mm
06:00 PM 43.9°F6.6°C 12.9°F-10.6°C 28% 5.0 mph 8.0 kmh 11.0 mph17.7 kmh 30.00 in1015.9 mb 0.00 in0.0 mm 0.00 in0.0 mm 0.02 in0.5 mm
06:05 PM 43.8°F6.6°C 11.2°F-11.6°C 26% 6.0 mph 9.7 kmh 14.0 mph22.5 kmh 30.00 in1015.9 mb 0.00 in0.0 mm 0.00 in0.0 mm 0.02 in0.5 mm
06:10 PM 43.6°F6.4°C 11.9°F-11.2°C 27% 5.0 mph 8.0 kmh 16.0 mph25.7 kmh 30.00 in1015.9 mb 0.00 in0.0 mm 0.00 in0.0 mm 0.02 in0.5 mm
06:15 PM 43.8°F6.6°C 11.2°F-11.6°C 26% 5.0 mph NNW8.0 kmh NNW 17.0 mph27.4 kmh 30.01 in1016.3 mb 0.00 in0.0 mm 0.00 in0.0 mm 0.02 in0.5 mm
06:20 PM 43.6°F6.4°C 10.1°F-12.2°C 25% 6.0 mph 9.7 kmh 11.0 mph17.7 kmh 30.01 in1016.3 mb 0.00 in0.0 mm 0.00 in0.0 mm 0.02 in0.5 mm
06:25 PM 43.3°F6.3°C 9.9°F-12.3°C 25% 5.0 mph NW8.0 kmh NW 16.0 mph25.7 kmh 30.01 in1016.3 mb 0.00 in0.0 mm 0.00 in0.0 mm 0.02 in0.5 mm
06:30 PM 43.3°F6.3°C 9.0°F-12.8°C 24% 6.0 mph NNW9.7 kmh NNW 12.0 mph19.3 kmh 30.02 in1016.6 mb 0.00 in0.0 mm 0.00 in0.0 mm 0.02 in0.5 mm
06:35 PM 43.1°F6.2°C 8.8°F-12.9°C 24% 6.0 mph 9.7 kmh 11.0 mph17.7 kmh 30.02 in1016.6 mb 0.00 in0.0 mm 0.00 in0.0 mm 0.02 in0.5 mm
06:40 PM 42.8°F6.0°C 7.6°F-13.6°C 23% 8.0 mph NW12.9 kmh NW 18.0 mph29.0 kmh 30.02 in1016.6 mb 0.00 in0.0 mm 0.00 in0.0 mm 0.02 in0.5 mm
06:45 PM 42.6°F5.9°C 7.4°F-13.7°C 23% 7.0 mph NNW11.3 kmh NNW 16.0 mph25.7 kmh 30.03 in1016.9 mb 0.00 in0.0 mm 0.00 in0.0 mm 0.02 in0.5 mm
06:50 PM 42.3°F5.7°C 7.2°F-13.8°C 23% 9.0 mph 14.5 kmh 17.0 mph27.4 kmh 30.03 in1016.9 mb 0.00 in0.0 mm 0.00 in0.0 mm 0.02 in0.5 mm
06:55 PM 42.5°F5.8°C 7.3°F-13.7°C 23% 6.0 mph NNW9.7 kmh NNW 12.0 mph19.3 kmh 30.03 in1016.9 mb 0.00 in0.0 mm 0.00 in0.0 mm 0.02 in0.5 mm
07:00 PM 42.2°F5.7°C 7.1°F-13.8°C 23% 7.0 mph 11.3 kmh 18.0 mph29.0 kmh 30.04 in1017.3 mb 0.00 in0.0 mm 0.00 in0.0 mm 0.02 in0.5 mm
07:05 PM 42.3°F5.7°C 6.2°F-14.3°C 22% 6.0 mph NW9.7 kmh NW 15.0 mph24.1 kmh 30.04 in1017.3 mb 0.00 in0.0 mm 0.00 in0.0 mm 0.02 in0.5 mm
07:10 PM 42.5°F5.8°C 7.3°F-13.7°C 23% 7.0 mph NNE11.3 kmh NNE 18.0 mph29.0 kmh 30.04 in1017.3 mb 0.00 in0.0 mm 0.00 in0.0 mm 0.02 in0.5 mm
07:15 PM 42.2°F5.7°C 7.1°F-13.8°C 23% 6.0 mph NNW9.7 kmh NNW 13.0 mph20.9 kmh 30.05 in1017.6 mb 0.00 in0.0 mm 0.00 in0.0 mm 0.02 in0.5 mm
07:20 PM 42.5°F5.8°C 8.3°F-13.2°C 24% 5.0 mph 8.0 kmh 13.0 mph20.9 kmh 30.05 in1017.6 mb 0.00 in0.0 mm 0.00 in0.0 mm 0.02 in0.5 mm
07:25 PM 42.2°F5.7°C 8.9°F-12.8°C 25% 6.0 mph 9.7 kmh 13.0 mph20.9 kmh 30.05 in1017.6 mb 0.00 in0.0 mm 0.00 in0.0 mm 0.02 in0.5 mm
07:30 PM 42.1°F5.6°C 7.9°F-13.4°C 24% 5.0 mph NNW8.0 kmh NNW 13.0 mph20.9 kmh 30.05 in1017.6 mb 0.00 in0.0 mm 0.00 in0.0 mm 0.02 in0.5 mm
07:35 PM 42.1°F5.6°C 6.0°F-14.4°C 22% 6.0 mph NW9.7 kmh NW 14.0 mph22.5 kmh 30.05 in1017.6 mb 0.00 in0.0 mm 0.00 in0.0 mm 0.02 in0.5 mm
07:40 PM 42.2°F5.7°C 8.9°F-12.8°C 25% 5.0 mph 8.0 kmh 12.0 mph19.3 kmh 30.05 in1017.6 mb 0.00 in0.0 mm 0.00 in0.0 mm 0.02 in0.5 mm
07:45 PM 42.3°F5.7°C 8.1°F-13.3°C 24% 5.0 mph NW8.0 kmh NW 14.0 mph22.5 kmh 30.06 in1017.9 mb 0.00 in0.0 mm 0.00 in0.0 mm 0.02 in0.5 mm
07:50 PM 42.1°F5.6°C 7.9°F-13.4°C 24% 6.0 mph 9.7 kmh 14.0 mph22.5 kmh 30.06 in1017.9 mb 0.00 in0.0 mm 0.00 in0.0 mm 0.02 in0.5 mm
07:55 PM 41.9°F5.5°C 6.8°F-14.0°C 23% 6.0 mph NW9.7 kmh NW 17.0 mph27.4 kmh 30.06 in1017.9 mb 0.00 in0.0 mm 0.00 in0.0 mm 0.02 in0.5 mm
08:00 PM 42.3°F5.7°C 8.1°F-13.3°C 24% 4.0 mph 6.4 kmh 13.0 mph20.9 kmh 30.06 in1017.9 mb 0.00 in0.0 mm 0.00 in0.0 mm 0.02 in0.5 mm
08:05 PM 42.2°F5.7°C 8.0°F-13.3°C 24% 6.0 mph 9.7 kmh 13.0 mph20.9 kmh 30.06 in1017.9 mb 0.00 in0.0 mm 0.00 in0.0 mm 0.02 in0.5 mm
08:10 PM 41.9°F5.5°C 6.8°F-14.0°C 23% 7.0 mph NNW11.3 kmh NNW 15.0 mph24.1 kmh 30.06 in1017.9 mb 0.00 in0.0 mm 0.00 in0.0 mm 0.02 in0.5 mm
08:15 PM 41.9°F5.5°C 6.8°F-14.0°C 23% 4.0 mph NNW6.4 kmh NNW 10.0 mph16.1 kmh 30.07 in1018.3 mb 0.00 in0.0 mm 0.00 in0.0 mm 0.02 in0.5 mm
08:20 PM 41.6°F5.3°C 5.6°F-14.7°C 22% 6.0 mph 9.7 kmh 15.0 mph24.1 kmh 30.07 in1018.3 mb 0.00 in0.0 mm 0.00 in0.0 mm 0.02 in0.5 mm
08:25 PM 41.5°F5.3°C 4.5°F-15.3°C 21% 7.0 mph 11.3 kmh 17.0 mph27.4 kmh 30.07 in1018.3 mb 0.00 in0.0 mm 0.00 in0.0 mm 0.02 in0.5 mm
08:30 PM 41.3°F5.2°C 6.3°F-14.3°C 23% 6.0 mph 9.7 kmh 18.0 mph29.0 kmh 30.08 in1018.6 mb 0.00 in0.0 mm 0.00 in0.0 mm 0.02 in0.5 mm
08:35 PM 41.2°F5.1°C 5.3°F-14.8°C 22% 9.0 mph NNE14.5 kmh NNE 17.0 mph27.4 kmh 30.08 in1018.6 mb 0.00 in0.0 mm 0.00 in0.0 mm 0.02 in0.5 mm
08:40 PM 41.2°F5.1°C 6.2°F-14.3°C 23% 6.0 mph 9.7 kmh 11.0 mph17.7 kmh 30.08 in1018.6 mb 0.00 in0.0 mm 0.00 in0.0 mm 0.02 in0.5 mm
08:45 PM 41.5°F5.3°C 7.4°F-13.7°C 24% 4.0 mph NNW6.4 kmh NNW 17.0 mph27.4 kmh 30.09 in1019.0 mb 0.00 in0.0 mm 0.00 in0.0 mm 0.02 in0.5 mm
08:50 PM 41.3°F5.2°C 6.3°F-14.3°C 23% 6.0 mph NNW9.7 kmh NNW 10.0 mph16.1 kmh 30.09 in1019.0 mb 0.00 in0.0 mm 0.00 in0.0 mm 0.02 in0.5 mm
08:55 PM 41.2°F5.1°C 6.2°F-14.3°C 23% 5.0 mph 8.0 kmh 9.0 mph14.5 kmh 30.09 in1019.0 mb 0.00 in0.0 mm 0.00 in0.0 mm 0.02 in0.5 mm
09:00 PM 41.3°F5.2°C 6.3°F-14.3°C 23% 3.0 mph 4.8 kmh 7.0 mph11.3 kmh 30.09 in1019.0 mb 0.00 in0.0 mm 0.00 in0.0 mm 0.02 in0.5 mm
09:05 PM 41.2°F5.1°C 6.2°F-14.3°C 23% 5.0 mph 8.0 kmh 16.0 mph25.7 kmh 30.09 in1019.0 mb 0.00 in0.0 mm 0.00 in0.0 mm 0.02 in0.5 mm
09:10 PM 41.2°F5.1°C 6.2°F-14.3°C 23% 5.0 mph 8.0 kmh 13.0 mph20.9 kmh 30.09 in1019.0 mb 0.00 in0.0 mm 0.00 in0.0 mm 0.02 in0.5 mm
09:15 PM 41.1°F5.1°C 5.2°F-14.9°C 22% 6.0 mph NNW9.7 kmh NNW 13.0 mph20.9 kmh 30.09 in1019.0 mb 0.00 in0.0 mm 0.00 in0.0 mm 0.02 in0.5 mm
09:20 PM 40.9°F4.9°C 6.9°F-13.9°C 24% 5.0 mph 8.0 kmh 13.0 mph20.9 kmh 30.09 in1019.0 mb 0.00 in0.0 mm 0.00 in0.0 mm 0.02 in0.5 mm
09:25 PM 40.8°F4.9°C 5.9°F-14.5°C 23% 7.0 mph 11.3 kmh 14.0 mph22.5 kmh 30.09 in1019.0 mb 0.00 in0.0 mm 0.00 in0.0 mm 0.02 in0.5 mm
09:30 PM 40.6°F4.8°C 5.7°F-14.6°C 23% 6.0 mph 9.7 kmh 13.0 mph20.9 kmh 30.10 in1019.3 mb 0.00 in0.0 mm 0.00 in0.0 mm 0.02 in0.5 mm
09:35 PM 40.5°F4.7°C 5.7°F-14.6°C 23% 4.0 mph 6.4 kmh 12.0 mph19.3 kmh 30.10 in1019.3 mb 0.00 in0.0 mm 0.00 in0.0 mm 0.02 in0.5 mm
09:40 PM 40.5°F4.7°C 5.7°F-14.6°C 23% 2.0 mph WSW3.2 kmh WSW 8.0 mph12.9 kmh 30.10 in1019.3 mb 0.00 in0.0 mm 0.00 in0.0 mm 0.02 in0.5 mm
09:45 PM 40.2°F4.6°C 4.4°F-15.3°C 22% 4.0 mph WNW6.4 kmh WNW 11.0 mph17.7 kmh 30.11 in1019.6 mb 0.00 in0.0 mm 0.00 in0.0 mm 0.02 in0.5 mm
09:50 PM 40.2°F4.6°C 5.4°F-14.8°C 23% 4.0 mph NNW6.4 kmh NNW 8.0 mph12.9 kmh 30.11 in1019.6 mb 0.00 in0.0 mm 0.00 in0.0 mm 0.02 in0.5 mm
09:55 PM 40.3°F4.6°C 4.5°F-15.3°C 22% 6.0 mph NNW9.7 kmh NNW 17.0 mph27.4 kmh 30.11 in1019.6 mb 0.00 in0.0 mm 0.00 in0.0 mm 0.02 in0.5 mm
10:00 PM 40.3°F4.6°C 5.5°F-14.7°C 23% 5.0 mph 8.0 kmh 9.0 mph14.5 kmh 30.12 in1020.0 mb 0.00 in0.0 mm 0.00 in0.0 mm 0.02 in0.5 mm
10:05 PM 40.2°F4.6°C 4.4°F-15.3°C 22% 5.0 mph 8.0 kmh 12.0 mph19.3 kmh 30.12 in1020.0 mb 0.00 in0.0 mm 0.00 in0.0 mm 0.02 in0.5 mm
10:10 PM 40.1°F4.5°C 5.3°F-14.8°C 23% 4.0 mph NNW6.4 kmh NNW 10.0 mph16.1 kmh 30.12 in1020.0 mb 0.00 in0.0 mm 0.00 in0.0 mm 0.02 in0.5 mm
10:15 PM 39.9°F4.4°C 5.1°F-14.9°C 23% 5.0 mph 8.0 kmh 13.0 mph20.9 kmh 30.13 in1020.3 mb 0.00 in0.0 mm 0.00 in0.0 mm 0.02 in0.5 mm
10:20 PM 39.8°F4.3°C 5.1°F-14.9°C 23% 5.0 mph NNW8.0 kmh NNW 13.0 mph20.9 kmh 30.13 in1020.3 mb 0.00 in0.0 mm 0.00 in0.0 mm 0.02 in0.5 mm
10:25 PM 39.8°F4.3°C 5.1°F-14.9°C 23% 4.0 mph 6.4 kmh 8.0 mph12.9 kmh 30.13 in1020.3 mb 0.00 in0.0 mm 0.00 in0.0 mm 0.02 in0.5 mm
10:30 PM 39.8°F4.3°C 5.1°F-14.9°C 23% 5.0 mph 8.0 kmh 11.0 mph17.7 kmh 30.14 in1020.7 mb 0.00 in0.0 mm 0.00 in0.0 mm 0.02 in0.5 mm
10:35 PM 39.6°F4.2°C 4.9°F-15.1°C 23% 4.0 mph 6.4 kmh 10.0 mph16.1 kmh 30.14 in1020.7 mb 0.00 in0.0 mm 0.00 in0.0 mm 0.02 in0.5 mm
10:40 PM 39.5°F4.2°C 5.7°F-14.6°C 24% 4.0 mph 6.4 kmh 11.0 mph17.7 kmh 30.14 in1020.7 mb 0.00 in0.0 mm 0.00 in0.0 mm 0.02 in0.5 mm
10:45 PM 39.3°F4.1°C 5.6°F-14.7°C 24% 3.0 mph 4.8 kmh 6.0 mph9.7 kmh 30.15 in1021.0 mb 0.00 in0.0 mm 0.00 in0.0 mm 0.02 in0.5 mm
10:50 PM 39.2°F4.0°C 6.4°F-14.2°C 25% 3.0 mph NNW4.8 kmh NNW 12.0 mph19.3 kmh 30.15 in1021.0 mb 0.00 in0.0 mm 0.00 in0.0 mm 0.02 in0.5 mm
10:55 PM 39.1°F3.9°C 5.4°F-14.8°C 24% 4.0 mph NNW6.4 kmh NNW 11.0 mph17.7 kmh 30.15 in1021.0 mb 0.00 in0.0 mm 0.00 in0.0 mm 0.02 in0.5 mm
11:00 PM 38.9°F3.8°C 6.1°F-14.4°C 25% 2.0 mph NNW3.2 kmh NNW 6.0 mph9.7 kmh 30.16 in1021.3 mb 0.00 in0.0 mm 0.00 in0.0 mm 0.02 in0.5 mm
11:05 PM 38.6°F3.7°C 5.9°F-14.5°C 25% 1.0 mph NNW1.6 kmh NNW 6.0 mph9.7 kmh 30.16 in1021.3 mb 0.00 in0.0 mm 0.00 in0.0 mm 0.02 in0.5 mm
11:10 PM 38.5°F3.6°C 5.8°F-14.6°C 25% 2.0 mph NNW3.2 kmh NNW 7.0 mph11.3 kmh 30.16 in1021.3 mb 0.00 in0.0 mm 0.00 in0.0 mm 0.02 in0.5 mm
11:15 PM 38.5°F3.6°C 6.6°F-14.1°C 26% 2.0 mph NNW3.2 kmh NNW 6.0 mph9.7 kmh 30.18 in1022.0 mb 0.00 in0.0 mm 0.00 in0.0 mm 0.02 in0.5 mm
11:20 PM 38.2°F3.4°C 7.2°F-13.8°C 27% Calm Calm 3.0 mph4.8 kmh 30.18 in1022.0 mb 0.00 in0.0 mm 0.00 in0.0 mm 0.02 in0.5 mm
11:25 PM 38.0°F3.3°C 7.0°F-13.9°C 27% 2.0 mph WNW3.2 kmh WNW 7.0 mph11.3 kmh 30.18 in1022.0 mb 0.00 in0.0 mm 0.00 in0.0 mm 0.02 in0.5 mm
11:30 PM 37.9°F3.3°C 6.9°F-13.9°C 27% 1.0 mph 1.6 kmh 6.0 mph9.7 kmh 30.19 in1022.4 mb 0.00 in0.0 mm 0.00 in0.0 mm 0.02 in0.5 mm
11:35 PM 37.8°F3.2°C 7.7°F-13.5°C 28% 1.0 mph NNW1.6 kmh NNW 5.0 mph8.0 kmh 30.19 in1022.4 mb 0.00 in0.0 mm 0.00 in0.0 mm 0.02 in0.5 mm
11:40 PM 37.5°F3.1°C 7.4°F-13.7°C 28% Calm Calm 1.0 mph1.6 kmh 30.19 in1022.4 mb 0.00 in0.0 mm 0.00 in0.0 mm 0.02 in0.5 mm
11:45 PM 37.2°F2.9°C 7.9°F-13.4°C 29% Calm Calm 2.0 mph3.2 kmh 30.20 in1022.7 mb 0.00 in0.0 mm 0.00 in0.0 mm 0.02 in0.5 mm
11:50 PM 36.8°F2.7°C 7.6°F-13.6°C 29% Calm Calm 1.0 mph1.6 kmh 30.20 in1022.7 mb 0.00 in0.0 mm 0.00 in0.0 mm 0.02 in0.5 mm
11:55 PM 36.3°F2.4°C 9.3°F-12.6°C 32% Calm Calm 1.0 mph1.6 kmh 30.20 in1022.7 mb 0.00 in0.0 mm 0.00 in0.0 mm 0.02 in0.5 mm